Time;durP1;ratioP1;P1;durP2;ratioP2;P2;SDS_P1;SDS_P2;PMS_P1;PMS_P2;Temp;Humidity;BMP_temperature;BMP_pressure;BME280_temperature;BME280_humidity;BME280_pressure;Samples;Min_cycle;Max_cycle;Signal;HPM_P1;HPM_P2
2021/12/20 00:00:45;;;;;;;30.52;3.72;;;10.50;99.90;;;;;;5043696;28;20417;-74
2021/12/20 00:03:11;;;;;;;30.03;4.17;;;10.50;99.90;;;;;;5058777;28;20445;-77
2021/12/20 00:05:37;;;;;;;30.38;4.22;;;10.50;99.90;;;;;;5062600;28;20399;-75
2021/12/20 00:08:03;;;;;;;27.58;4.40;;;10.50;99.90;;;;;;5064416;28;21198;-75
2021/12/20 00:10:28;;;;;;;26.60;3.90;;;10.50;99.90;;;;;;5047331;28;20403;-76
2021/12/20 00:12:54;;;;;;;28.87;4.20;;;10.40;99.90;;;;;;5046346;28;20769;-76
2021/12/20 00:15:20;;;;;;;27.55;4.25;;;10.50;99.90;;;;;;5065191;28;20895;-77
2021/12/20 00:17:46;;;;;;;27.47;4.00;;;10.40;99.90;;;;;;5060620;28;20457;-77
2021/12/20 00:20:12;;;;;;;32.13;4.07;;;10.40;99.90;;;;;;5066990;28;20407;-76
2021/12/20 00:22:39;;;;;;;29.27;3.83;;;10.40;99.90;;;;;;5045507;28;20415;-75
2021/12/20 00:25:06;;;;;;;30.23;4.03;;;10.40;99.90;;;;;;5049658;28;20419;-76
2021/12/20 00:27:32;;;;;;;28.88;4.55;;;10.40;99.90;;;;;;5046168;28;20459;-76
2021/12/20 00:29:58;;;;;;;29.07;4.10;;;10.40;99.90;;;;;;5064446;28;20435;-75
2021/12/20 00:32:24;;;;;;;26.15;4.30;;;10.40;99.90;;;;;;5062951;28;20447;-76
2021/12/20 00:34:49;;;;;;;28.77;4.20;;;10.40;99.90;;;;;;5064910;28;20395;-75
2021/12/20 00:42:45;;;;;;;30.20;4.05;;;10.40;99.90;;;;;;5064500;28;20415;-76
2021/12/20 00:45:12;;;;;;;31.75;4.55;;;10.40;99.90;;;;;;5049816;28;20760;-75
2021/12/20 00:47:38;;;;;;;29.63;4.28;;;10.40;99.90;;;;;;5075762;28;20488;-76
2021/12/20 00:50:06;;;;;;;27.33;4.27;;;10.40;99.90;;;;;;5056674;28;20953;-76
2021/12/20 00:52:31;;;;;;;29.60;4.38;;;10.40;99.90;;;;;;5048273;28;20415;-76
2021/12/20 00:54:57;;;;;;;30.25;4.40;;;10.40;99.90;;;;;;5052645;28;20921;-77
2021/12/20 00:57:23;;;;;;;28.75;4.28;;;10.40;99.90;;;;;;5068719;28;20428;-76
2021/12/20 00:59:49;;;;;;;30.70;4.65;;;10.40;99.90;;;;;;5054820;28;20401;-75
2021/12/20 01:02:14;;;;;;;29.70;4.13;;;10.40;99.90;;;;;;5047713;28;20911;-75
2021/12/20 01:04:40;;;;;;;27.93;3.70;;;10.40;99.90;;;;;;5049959;28;20406;-76
2021/12/20 01:07:05;;;;;;;29.45;4.18;;;10.40;99.90;;;;;;5051630;28;20406;-77
2021/12/20 01:09:31;;;;;;;29.13;4.17;;;10.40;99.80;;;;;;5069349;28;20421;-77
2021/12/20 01:12:03;;;;;;;30.23;4.13;;;10.40;99.60;;;;;;5066855;28;20532;-75
2021/12/20 01:14:31;;;;;;;28.42;4.38;;;10.40;99.90;;;;;;5047618;28;20426;-76
2021/12/20 01:17:03;;;;;;;29.30;4.28;;;10.40;99.80;;;;;;5048156;28;20451;-76
2021/12/20 01:19:28;;;;;;;31.70;4.30;;;10.30;99.30;;;;;;5072923;28;20920;-76
2021/12/20 01:21:54;;;;;;;25.98;4.07;;;10.40;99.80;;;;;;5064688;28;20443;-76
2021/12/20 01:24:20;;;;;;;32.03;4.57;;;10.40;99.60;;;;;;5070044;28;20490;-77
2021/12/20 01:26:46;;;;;;;33.75;4.18;;;10.30;99.50;;;;;;5064766;28;20419;-77
2021/12/20 01:29:11;;;;;;;31.53;4.47;;;10.40;99.80;;;;;;5067228;28;20407;-76
2021/12/20 01:31:37;;;;;;;28.30;4.40;;;10.40;99.70;;;;;;5048572;28;20439;-77
2021/12/20 01:34:02;;;;;;;34.03;4.10;;;10.40;99.90;;;;;;5052801;28;20422;-76
2021/12/20 01:36:28;;;;;;;31.00;4.22;;;10.30;99.90;;;;;;5057408;28;20900;-76
2021/12/20 01:38:54;;;;;;;32.27;4.77;;;10.30;99.90;;;;;;5070659;28;20403;-76
2021/12/20 01:41:19;;;;;;;30.57;4.27;;;10.40;99.90;;;;;;5051208;28;20468;-78
2021/12/20 01:43:45;;;;;;;24.95;4.22;;;10.40;99.90;;;;;;5034473;28;20396;-75
2021/12/20 01:46:11;;;;;;;29.27;4.20;;;10.30;99.90;;;;;;5048342;28;20435;-76
2021/12/20 01:48:38;;;;;;;34.78;4.55;;;10.30;99.90;;;;;;5066868;28;20429;-75
2021/12/20 01:53:41;;;;;;;32.17;4.40;;;10.30;99.90;;;;;;5067820;28;20498;-75
2021/12/20 01:56:08;;;;;;;33.53;4.72;;;10.30;99.90;;;;;;5049399;28;20510;-75
2021/12/20 01:58:34;;;;;;;31.60;4.40;;;10.30;99.90;;;;;;5035383;28;21053;-75
2021/12/20 02:01:03;;;;;;;31.65;4.60;;;10.30;99.90;;;;;;5066288;28;20421;-76
2021/12/20 02:03:31;;;;;;;34.65;4.35;;;10.30;99.90;;;;;;5030214;28;20415;-76
2021/12/20 02:05:59;;;;;;;29.50;4.32;;;10.30;99.90;;;;;;5064464;28;20512;-75
2021/12/20 02:08:28;;;;;;;28.98;4.50;;;10.30;99.90;;;;;;5066156;28;20446;-76
2021/12/20 02:10:57;;;;;;;34.08;4.80;;;10.30;99.90;;;;;;5065665;28;20503;-75
2021/12/20 02:13:25;;;;;;;29.23;4.35;;;10.30;99.90;;;;;;5065598;28;20407;-75
2021/12/20 02:15:52;;;;;;;40.20;4.65;;;10.30;99.90;;;;;;5064578;28;20505;-76
2021/12/20 02:18:17;;;;;;;29.00;4.38;;;10.30;99.90;;;;;;5033132;28;20435;-76
2021/12/20 02:20:43;;;;;;;29.27;4.60;;;10.30;99.90;;;;;;5065929;28;20400;-76
2021/12/20 02:23:09;;;;;;;29.98;4.55;;;10.30;99.90;;;;;;5069850;28;20494;-76
2021/12/20 02:25:35;;;;;;;25.03;4.27;;;10.30;99.90;;;;;;5048175;28;20407;-75
2021/12/20 02:28:10;;;;;;;31.73;4.47;;;10.30;99.90;;;;;;5065330;28;20418;-76
2021/12/20 02:30:51;;;;;;;33.13;5.00;;;10.30;99.90;;;;;;5065665;28;20824;-76
2021/12/20 02:38:50;;;;;;;21.63;3.60;;;10.30;99.60;;;;;;5067870;28;20417;-76
2021/12/20 02:41:27;;;;;;;25.13;3.90;;;10.30;99.50;;;;;;5068526;28;20421;-76
2021/12/20 02:43:57;;;;;;;31.67;4.20;;;10.20;99.50;;;;;;5068466;28;20969;-77
2021/12/20 02:46:49;;;;;;;28.75;3.83;;;10.30;99.50;;;;;;5069173;28;20454;-76
2021/12/20 02:49:14;;;;;;;29.65;4.40;;;10.30;99.10;;;;;;5068173;28;20932;-77
2021/12/20 02:51:41;;;;;;;27.92;3.55;;;10.20;98.90;;;;;;5070702;28;20418;-77
2021/12/20 02:54:09;;;;;;;28.73;4.53;;;10.30;99.30;;;;;;5069468;28;20873;-76
2021/12/20 02:56:36;;;;;;;29.13;3.83;;;10.30;99.50;;;;;;5049563;28;20784;-77
2021/12/20 02:59:02;;;;;;;29.95;3.85;;;10.20;99.40;;;;;;5083348;28;20399;-77
2021/12/20 03:01:28;;;;;;;26.98;3.92;;;10.20;98.40;;;;;;5068685;28;20407;-77
2021/12/20 03:03:55;;;;;;;25.40;3.90;;;10.20;98.30;;;;;;5051043;28;20489;-76
2021/12/20 03:06:26;;;;;;;31.20;4.47;;;10.20;98.40;;;;;;5072993;28;20411;-75
2021/12/20 03:08:55;;;;;;;23.58;3.75;;;10.20;98.70;;;;;;5068408;28;20411;-76
2021/12/20 03:11:22;;;;;;;22.30;3.45;;;10.20;98.60;;;;;;5067988;28;20412;-75
2021/12/20 03:13:52;;;;;;;21.30;3.60;;;10.20;98.80;;;;;;5068559;28;20460;-76
2021/12/20 03:16:18;;;;;;;24.20;3.58;;;10.20;98.80;;;;;;5063062;28;20439;-75
2021/12/20 03:18:43;;;;;;;25.23;3.73;;;10.20;98.80;;;;;;5068807;28;20480;-75
2021/12/20 03:21:09;;;;;;;22.83;3.60;;;10.20;98.10;;;;;;5069341;28;20457;-75
2021/12/20 03:23:35;;;;;;;25.10;3.58;;;10.20;97.20;;;;;;5068561;28;20799;-76
2021/12/20 03:26:01;;;;;;;27.02;3.75;;;10.20;96.60;;;;;;5072342;28;20415;-76
2021/12/20 03:28:27;;;;;;;27.20;3.93;;;10.20;96.90;;;;;;5050969;28;20408;-74
2021/12/20 03:30:52;;;;;;;25.30;3.77;;;10.20;97.10;;;;;;5047272;28;20490;-76
2021/12/20 03:33:18;;;;;;;32.17;4.10;;;10.20;97.20;;;;;;5054455;28;20900;-77
2021/12/20 03:35:44;;;;;;;28.65;4.03;;;10.20;97.50;;;;;;5049819;28;21603;-74
2021/12/20 03:38:10;;;;;;;26.17;3.65;;;10.20;97.50;;;;;;5056983;28;20501;-76
2021/12/20 03:40:37;;;;;;;23.63;3.72;;;10.10;97.70;;;;;;5037475;28;20404;-77
2021/12/20 03:43:03;;;;;;;26.60;3.90;;;10.10;97.50;;;;;;5057729;28;20417;-76
2021/12/20 03:45:29;;;;;;;30.48;4.00;;;10.20;98.10;;;;;;5074071;28;20849;-76
2021/12/20 03:47:55;;;;;;;28.52;4.13;;;10.20;98.30;;;;;;5071164;28;20419;-76
2021/12/20 03:50:20;;;;;;;28.85;4.10;;;10.20;98.00;;;;;;5071946;28;20439;-76
2021/12/20 03:52:46;;;;;;;30.42;4.93;;;10.10;98.30;;;;;;5064537;28;21045;-78
2021/12/20 03:55:13;;;;;;;29.53;4.03;;;10.10;98.40;;;;;;5043567;28;20937;-78
2021/12/20 03:57:40;;;;;;;35.28;4.47;;;10.10;98.30;;;;;;5048503;28;20848;-75
2021/12/20 04:00:10;;;;;;;25.33;3.90;;;10.10;98.30;;;;;;5051238;28;20407;-77
2021/12/20 04:02:43;;;;;;;24.92;4.10;;;10.10;98.30;;;;;;5063419;28;20415;-76
2021/12/20 04:05:10;;;;;;;33.00;4.07;;;10.10;98.90;;;;;;5050388;28;20403;-77
2021/12/20 04:07:36;;;;;;;25.33;3.85;;;10.10;98.70;;;;;;5061769;28;20411;-76
2021/12/20 04:10:04;;;;;;;33.17;5.00;;;10.10;98.70;;;;;;5052980;28;21276;-75
2021/12/20 04:12:29;;;;;;;33.72;4.53;;;10.10;99.00;;;;;;5052048;28;20811;-76
2021/12/20 04:14:55;;;;;;;33.92;4.40;;;10.10;99.10;;;;;;5049990;28;20404;-76
2021/12/20 04:17:21;;;;;;;27.30;3.83;;;10.10;98.60;;;;;;5063855;28;20422;-76
2021/12/20 04:19:47;;;;;;;34.03;4.37;;;10.10;99.20;;;;;;5079564;28;20395;-76
2021/12/20 04:22:15;;;;;;;24.00;3.83;;;10.10;99.20;;;;;;5049354;28;20415;-76
2021/12/20 04:24:41;;;;;;;17.83;2.75;;;10.10;99.40;;;;;;5048863;28;20423;-75
2021/12/20 04:27:07;;;;;;;25.08;3.65;;;10.10;98.30;;;;;;5071130;28;20807;-75
2021/12/20 04:29:33;;;;;;;22.45;3.75;;;10.10;97.40;;;;;;5054568;28;20461;-75
2021/12/20 04:31:59;;;;;;;20.97;3.63;;;10.00;97.10;;;;;;5054283;28;20417;-75
2021/12/20 04:34:25;;;;;;;23.30;4.18;;;10.10;96.90;;;;;;5054285;28;20411;-74
2021/12/20 04:36:52;;;;;;;26.38;4.00;;;10.10;97.10;;;;;;5056104;28;20436;-75
2021/12/20 04:39:20;;;;;;;22.33;3.88;;;10.00;97.00;;;;;;5068069;28;20399;-75
2021/12/20 04:41:46;;;;;;;25.67;4.03;;;10.00;97.00;;;;;;5065338;28;21289;-77
2021/12/20 04:44:12;;;;;;;19.20;3.57;;;10.10;97.50;;;;;;5067705;28;20498;-77
2021/12/20 04:46:38;;;;;;;27.27;4.45;;;10.10;97.80;;;;;;5061499;28;20450;-76
2021/12/20 04:49:03;;;;;;;23.67;3.80;;;10.00;97.70;;;;;;5064666;28;20411;-76
2021/12/20 04:51:29;;;;;;;26.02;3.95;;;10.00;97.80;;;;;;5044647;28;20424;-76
2021/12/20 04:53:55;;;;;;;25.07;3.70;;;10.10;97.30;;;;;;5066216;28;20892;-76
2021/12/20 04:56:20;;;;;;;22.42;4.05;;;10.00;97.60;;;;;;5028509;28;20419;-76
2021/12/20 04:58:46;;;;;;;27.73;4.83;;;10.10;97.50;;;;;;5044505;28;20411;-75
2021/12/20 05:01:12;;;;;;;22.65;4.35;;;10.00;97.30;;;;;;5043872;28;20419;-77
2021/12/20 05:03:37;;;;;;;27.48;4.05;;;10.00;97.40;;;;;;5060619;28;20448;-74
2021/12/20 05:06:03;;;;;;;24.40;4.80;;;10.00;96.20;;;;;;5045486;28;20915;-76
2021/12/20 05:08:34;;;;;;;25.10;4.70;;;10.00;96.20;;;;;;5053475;28;20452;-76
2021/12/20 05:11:06;;;;;;;26.10;5.00;;;10.00;96.10;;;;;;5046308;28;20822;-77
2021/12/20 05:13:32;;;;;;;24.73;4.30;;;10.00;96.40;;;;;;5068900;28;20910;-76
2021/12/20 05:15:58;;;;;;;25.55;4.05;;;10.00;96.30;;;;;;5067077;28;20409;-75
2021/12/20 05:18:23;;;;;;;19.67;3.08;;;10.00;96.20;;;;;;5070627;28;20419;-76
2021/12/20 05:20:49;;;;;;;23.67;3.30;;;10.00;96.40;;;;;;5044211;28;20420;-77
2021/12/20 05:23:15;;;;;;;20.33;2.88;;;10.10;96.20;;;;;;5067573;28;20884;-76
2021/12/20 05:25:41;;;;;;;20.47;3.40;;;10.00;95.50;;;;;;5066713;28;20395;-75
2021/12/20 05:28:08;;;;;;;23.23;3.88;;;10.00;96.00;;;;;;5070119;28;20403;-75
2021/12/20 05:30:34;;;;;;;18.40;4.00;;;10.00;96.00;;;;;;5064982;28;20404;-76
2021/12/20 05:33:01;;;;;;;25.92;4.60;;;10.00;96.10;;;;;;5079371;28;20426;-76
2021/12/20 05:35:27;;;;;;;23.73;3.78;;;10.00;96.70;;;;;;5066320;28;20399;-74
2021/12/20 05:37:52;;;;;;;21.80;3.50;;;10.00;97.50;;;;;;5066814;28;20427;-76
2021/12/20 05:40:20;;;;;;;21.85;3.45;;;10.00;96.90;;;;;;5070312;28;20411;-76
2021/12/20 05:42:46;;;;;;;23.30;3.38;;;10.00;96.90;;;;;;5063116;28;20505;-75
2021/12/20 05:45:12;;;;;;;17.45;3.33;;;10.00;96.50;;;;;;5067788;28;21269;-76
2021/12/20 05:47:38;;;;;;;17.20;3.05;;;10.00;96.00;;;;;;5064286;28;20415;-76
2021/12/20 05:50:06;;;;;;;19.27;3.47;;;10.00;96.30;;;;;;5082091;28;20446;-74
2021/12/20 05:52:31;;;;;;;20.67;3.10;;;10.00;96.20;;;;;;5065543;28;20979;-75
2021/12/20 05:54:57;;;;;;;22.90;3.77;;;10.00;96.40;;;;;;5067085;28;20523;-75
2021/12/20 05:57:23;;;;;;;24.03;3.80;;;10.00;96.80;;;;;;5066146;28;20769;-74
2021/12/20 05:59:48;;;;;;;22.88;3.97;;;10.00;96.90;;;;;;5051484;28;20764;-74
2021/12/20 06:02:14;;;;;;;19.87;3.00;;;10.00;96.80;;;;;;5063160;28;20831;-75
2021/12/20 06:04:40;;;;;;;18.38;3.17;;;10.00;96.60;;;;;;5062316;28;21162;-75
2021/12/20 06:07:05;;;;;;;18.47;3.43;;;10.00;96.60;;;;;;5062715;28;20439;-75
2021/12/20 06:09:32;;;;;;;24.77;3.40;;;10.00;96.40;;;;;;5065998;28;20415;-75
2021/12/20 06:11:59;;;;;;;24.55;3.28;;;10.00;96.60;;;;;;5065428;28;20768;-75
2021/12/20 06:14:28;;;;;;;18.02;3.28;;;10.00;97.00;;;;;;5068557;28;22117;-76
2021/12/20 06:16:57;;;;;;;20.15;2.88;;;10.00;97.20;;;;;;5057837;28;20749;-75
2021/12/20 06:19:24;;;;;;;22.70;3.40;;;10.00;97.40;;;;;;5066522;28;20406;-76
2021/12/20 06:21:51;;;;;;;19.15;2.92;;;9.90;97.50;;;;;;5067911;28;20403;-75
2021/12/20 06:24:17;;;;;;;21.10;3.33;;;10.00;97.20;;;;;;5061811;28;20427;-74
2021/12/20 06:26:42;;;;;;;18.17;2.67;;;10.00;96.90;;;;;;5066404;28;20430;-75
2021/12/20 06:29:08;;;;;;;18.85;2.92;;;10.00;97.40;;;;;;5066613;28;20442;-75
2021/12/20 06:31:33;;;;;;;22.07;3.53;;;9.90;97.40;;;;;;5048823;28;20411;-74
2021/12/20 06:33:59;;;;;;;24.60;6.07;;;10.00;97.60;;;;;;5067351;28;20411;-74
2021/12/20 06:36:26;;;;;;;23.97;6.10;;;10.00;96.80;;;;;;5048533;28;20411;-72
2021/12/20 06:38:54;;;;;;;21.73;4.87;;;9.90;96.80;;;;;;5066878;28;20415;-74
2021/12/20 06:41:20;;;;;;;22.38;4.82;;;10.00;96.10;;;;;;5049203;28;20496;-75
2021/12/20 06:43:46;;;;;;;22.38;3.78;;;10.00;96.90;;;;;;5068889;28;20933;-75
2021/12/20 06:46:14;;;;;;;21.20;3.03;;;10.00;96.70;;;;;;5054447;28;20412;-75
2021/12/20 06:48:40;;;;;;;20.17;3.20;;;10.00;96.70;;;;;;5076450;28;20427;-75
2021/12/20 06:51:05;;;;;;;19.17;3.17;;;10.00;96.70;;;;;;5069132;28;20407;-76
2021/12/20 06:53:31;;;;;;;18.67;2.70;;;10.00;96.70;;;;;;5056431;28;20485;-77
2021/12/20 06:55:57;;;;;;;14.73;2.97;;;10.00;97.00;;;;;;5071385;28;20730;-78
2021/12/20 06:58:23;;;;;;;16.17;2.80;;;9.90;97.10;;;;;;5080636;28;20790;-76
2021/12/20 07:00:53;;;;;;;17.92;2.88;;;9.90;97.40;;;;;;5071539;28;20408;-75
2021/12/20 07:03:20;;;;;;;20.10;3.00;;;9.90;97.80;;;;;;5074909;28;20484;-75
2021/12/20 07:05:46;;;;;;;22.67;3.30;;;9.80;98.10;;;;;;5076070;28;20410;-74
2021/12/20 07:08:12;;;;;;;19.15;3.20;;;9.80;98.60;;;;;;5077205;28;20408;-75
2021/12/20 07:10:38;;;;;;;20.23;2.80;;;9.80;98.40;;;;;;5069737;28;20389;-76
2021/12/20 07:13:04;;;;;;;15.87;2.53;;;9.80;98.40;;;;;;5076238;28;20872;-75
2021/12/20 07:15:31;;;;;;;15.40;2.25;;;9.80;98.50;;;;;;5071495;28;20418;-72
2021/12/20 07:17:58;;;;;;;8.20;1.90;;;9.70;98.50;;;;;;5056754;28;20411;-75
2021/12/20 07:20:25;;;;;;;14.43;2.25;;;9.70;98.40;;;;;;5068011;28;20461;-73
2021/12/20 07:22:50;;;;;;;13.50;2.28;;;9.70;99.00;;;;;;5074585;28;20404;-75
2021/12/20 07:25:17;;;;;;;18.40;2.50;;;9.60;98.70;;;;;;5068245;28;20491;-76
2021/12/20 07:27:43;;;;;;;12.45;2.08;;;9.60;98.50;;;;;;5072227;28;20395;-75
2021/12/20 07:30:09;;;;;;;17.85;2.65;;;9.60;98.80;;;;;;5073263;28;20497;-77
2021/12/20 07:32:35;;;;;;;16.20;2.47;;;9.60;99.00;;;;;;5074608;28;20484;-76
2021/12/20 07:35:01;;;;;;;14.02;2.60;;;9.60;99.10;;;;;;5042168;28;20456;-76
2021/12/20 07:37:27;;;;;;;24.67;2.83;;;9.60;99.30;;;;;;5079952;28;20419;-75
2021/12/20 07:39:54;;;;;;;13.30;2.47;;;9.60;99.00;;;;;;5071413;28;20395;-76
2021/12/20 07:42:19;;;;;;;17.10;2.65;;;9.50;99.10;;;;;;5067532;28;20419;-75
2021/12/20 07:44:46;;;;;;;15.37;2.57;;;9.50;99.10;;;;;;5038837;28;20417;-75
2021/12/20 07:47:12;;;;;;;13.60;2.60;;;9.40;99.40;;;;;;5062354;28;20418;-75
2021/12/20 07:49:37;;;;;;;20.33;2.60;;;9.40;99.50;;;;;;5064455;28;20764;-76
2021/12/20 07:52:04;;;;;;;16.38;3.22;;;9.40;99.60;;;;;;5063314;28;20939;-76
2021/12/20 07:54:30;;;;;;;15.68;3.05;;;9.40;99.70;;;;;;5043411;28;20484;-75
2021/12/20 07:56:56;;;;;;;18.63;3.67;;;9.30;99.70;;;;;;5066879;28;20419;-75
2021/12/20 07:59:22;;;;;;;18.98;3.38;;;9.30;99.70;;;;;;5064835;28;20407;-74
2021/12/20 08:01:49;;;;;;;18.55;3.40;;;9.30;99.80;;;;;;5065899;28;20772;-75
2021/12/20 08:04:15;;;;;;;17.63;3.67;;;9.30;99.90;;;;;;5066692;28;20759;-75
2021/12/20 08:06:43;;;;;;;20.27;3.23;;;9.30;99.90;;;;;;5066496;28;20486;-75
2021/12/20 08:09:10;;;;;;;23.40;3.50;;;9.30;99.90;;;;;;5062530;28;20464;-74
2021/12/20 08:11:36;;;;;;;15.98;3.10;;;9.30;99.90;;;;;;5040721;28;20888;-74
2021/12/20 08:14:03;;;;;;;15.60;3.30;;;9.30;99.90;;;;;;5055629;28;20518;-75
2021/12/20 08:16:28;;;;;;;15.60;3.45;;;9.30;99.90;;;;;;5055333;28;20403;-76
2021/12/20 08:18:54;;;;;;;16.50;3.40;;;9.30;99.90;;;;;;5062106;28;20915;-76
2021/12/20 08:21:21;;;;;;;19.63;3.50;;;9.30;99.90;;;;;;5042853;28;20953;-75
2021/12/20 08:23:47;;;;;;;19.98;3.75;;;9.40;99.90;;;;;;5061299;28;20462;-75
2021/12/20 08:26:13;;;;;;;17.55;3.67;;;9.40;99.90;;;;;;5059694;28;20404;-75
2021/12/20 08:28:39;;;;;;;19.30;3.47;;;9.40;99.90;;;;;;5059993;28;20411;-74
2021/12/20 08:31:06;;;;;;;15.87;3.60;;;9.50;99.90;;;;;;5066623;28;20530;-73
2021/12/20 08:33:32;;;;;;;15.07;3.47;;;9.50;99.90;;;;;;5064580;28;21168;-75
2021/12/20 08:36:03;;;;;;;15.65;3.70;;;9.50;99.90;;;;;;5064294;28;20893;-75
2021/12/20 08:38:29;;;;;;;16.77;4.07;;;9.60;99.90;;;;;;5060736;28;20499;-74
2021/12/20 08:40:55;;;;;;;13.50;3.57;;;9.60;99.90;;;;;;5064944;28;20483;-73
2021/12/20 08:43:21;;;;;;;19.38;4.15;;;9.60;99.90;;;;;;5072761;28;20415;-75
2021/12/20 08:45:50;;;;;;;13.57;4.00;;;9.70;99.90;;;;;;5066601;28;20404;-75
2021/12/20 08:48:16;;;;;;;13.70;3.63;;;9.70;99.90;;;;;;5047653;28;20404;-75
2021/12/20 08:50:42;;;;;;;15.90;3.60;;;9.70;99.90;;;;;;5047871;28;20851;-74
2021/12/20 08:53:10;;;;;;;17.45;3.50;;;9.80;99.70;;;;;;5076253;28;20408;-75
2021/12/20 08:55:36;;;;;;;16.52;3.50;;;9.80;99.60;;;;;;5049897;28;20456;-75
2021/12/20 08:58:03;;;;;;;17.85;3.35;;;9.80;99.60;;;;;;5066208;28;20408;-75
2021/12/20 09:00:30;;;;;;;15.02;3.03;;;9.90;99.60;;;;;;5066411;28;20411;-76
2021/12/20 09:02:57;;;;;;;13.20;2.70;;;9.90;99.30;;;;;;5065048;28;20474;-75
2021/12/20 09:05:24;;;;;;;16.35;2.70;;;9.90;99.10;;;;;;5050408;28;20413;-74
2021/12/20 09:07:50;;;;;;;14.68;2.40;;;9.90;99.20;;;;;;5066963;28;20439;-74
2021/12/20 09:10:16;;;;;;;15.73;2.37;;;9.90;99.20;;;;;;5070577;28;20489;-72
2021/12/20 09:12:44;;;;;;;13.30;2.60;;;9.90;99.30;;;;;;5066862;28;20407;-74
2021/12/20 09:15:16;;;;;;;12.30;2.78;;;9.90;99.00;;;;;;5065838;28;20511;-73
2021/12/20 09:17:44;;;;;;;20.25;3.88;;;9.90;99.20;;;;;;5066130;28;20422;-74
2021/12/20 09:20:10;;;;;;;18.73;3.60;;;10.00;99.20;;;;;;5047875;28;20386;-74
2021/12/20 09:22:48;;;;;;;14.98;2.70;;;10.10;99.10;;;;;;5065919;28;20415;-73
2021/12/20 09:25:14;;;;;;;14.50;2.73;;;10.10;99.10;;;;;;5066707;28;20404;-75
2021/12/20 09:27:39;;;;;;;10.60;2.28;;;10.20;98.70;;;;;;5058593;28;20397;-74
2021/12/20 09:30:05;;;;;;;12.67;2.20;;;10.20;98.60;;;;;;5066361;28;20992;-76
2021/12/20 09:32:31;;;;;;;13.05;2.53;;;10.20;98.40;;;;;;5048101;28;20434;-74
2021/12/20 09:34:57;;;;;;;14.30;2.47;;;10.30;98.70;;;;;;5066696;28;20903;-74
2021/12/20 09:37:23;;;;;;;10.85;2.20;;;10.30;98.50;;;;;;5051955;28;20962;-74
2021/12/20 09:39:53;;;;;;;12.07;2.25;;;10.30;98.20;;;;;;5068309;28;20406;-75
2021/12/20 09:42:18;;;;;;;;;;;10.40;98.20;;;;;;5064455;28;20756;-74
2021/12/20 09:44:44;;;;;;;;;;;10.40;98.00;;;;;;5043841;28;20286;-73
2021/12/20 09:47:10;;;;;;;;;;;10.40;98.10;;;;;;5065102;28;20236;-73
2021/12/20 09:49:35;;;;;;;;;;;10.50;98.20;;;;;;5048522;28;25081;-73
2021/12/20 09:52:01;;;;;;;;;;;10.50;98.00;;;;;;5048281;28;19913;-74
2021/12/20 09:54:27;;;;;;;;;;;10.60;97.40;;;;;;5083952;28;19927;-74
2021/12/20 09:56:54;;;;;;;;;;;10.60;97.40;;;;;;5069908;28;20365;-74
2021/12/20 09:59:22;;;;;;;;;;;10.60;97.40;;;;;;5042645;28;19964;-74
2021/12/20 10:01:49;;;;;;;;;;;10.60;97.30;;;;;;5062395;28;20365;-74
2021/12/20 10:04:15;;;;;;;12.07;2.58;;;10.60;97.60;;;;;;5066218;28;20510;-73
2021/12/20 10:06:42;;;;;;;7.93;1.80;;;10.60;97.70;;;;;;5063914;28;20450;-73
2021/12/20 10:09:14;;;;;;;10.37;2.00;;;10.60;97.60;;;;;;5067882;28;20502;-72
2021/12/20 10:11:40;;;;;;;13.88;2.08;;;10.60;97.30;;;;;;5060831;28;20418;-73
2021/12/20 10:14:10;;;;;;;10.52;2.13;;;10.70;97.10;;;;;;5065264;28;20973;-74
2021/12/20 10:16:39;;;;;;;7.25;1.90;;;10.70;96.90;;;;;;5066995;28;20419;-74
2021/12/20 10:19:09;;;;;;;10.10;2.20;;;10.80;96.90;;;;;;5062781;28;20392;-74
2021/12/20 10:21:44;;;;;;;9.10;2.05;;;10.80;96.90;;;;;;5078071;28;20911;-74
2021/12/20 10:24:27;;;;;;;;;;;10.90;96.50;;;;;;5048529;28;20502;-77
2021/12/20 10:26:53;;;;;;;;;;;11.00;96.20;;;;;;5042379;28;19909;-74
2021/12/20 10:29:20;;;;;;;;;;;11.10;96.20;;;;;;5061381;28;19927;-76
2021/12/20 10:31:46;;;;;;;;;;;11.10;96.10;;;;;;5065480;28;19916;-75
2021/12/20 10:34:13;;;;;;;;;;;11.20;96.10;;;;;;5044088;28;19913;-75
2021/12/20 10:36:52;;;;;;;;;;;11.30;96.10;;;;;;5066663;28;20120;-75
2021/12/20 10:39:31;;;;;;;;;;;11.30;95.70;;;;;;5068156;28;19931;-76
2021/12/20 10:42:00;;;;;;;;;;;11.30;95.50;;;;;;5063356;28;20006;-74
2021/12/20 10:44:25;;;;;;;;;;;11.20;95.50;;;;;;5069526;28;19916;-75
2021/12/20 10:46:53;;;;;;;;;;;11.20;95.50;;;;;;5048174;28;19912;-75
2021/12/20 10:49:19;;;;;;;;;;;11.10;95.80;;;;;;5067698;28;19909;-75
2021/12/20 10:51:46;;;;;;;;;;;11.10;96.10;;;;;;5066282;28;20272;-75
2021/12/20 10:54:15;;;;;;;;;;;11.10;96.30;;;;;;5067406;28;19912;-75
2021/12/20 10:56:47;;;;;;;;;;;11.10;96.10;;;;;;5044297;28;19912;-74
2021/12/20 10:59:13;;;;;;;;;;;11.10;95.70;;;;;;5063104;28;19917;-75
2021/12/20 11:04:17;;;;;;;;;;;11.20;95.60;;;;;;5069774;28;19960;-74
2021/12/20 11:09:31;;;;;;;;;;;11.50;94.70;;;;;;5066311;28;19908;-75
2021/12/20 11:11:58;;;;;;;;;;;11.70;92.90;;;;;;5047447;28;19923;-74
2021/12/20 11:14:29;;;;;;;;;;;11.80;92.70;;;;;;5066546;28;19908;-76
2021/12/20 11:16:57;;;;;;;;;;;11.90;92.10;;;;;;5065142;28;19916;-76
2021/12/20 11:19:24;;;;;;;;;;;12.00;92.10;;;;;;5065104;28;19912;-74
2021/12/20 11:22:28;;;;;;;;;;;12.10;92.50;;;;;;5067025;28;19934;-74
2021/12/20 11:24:55;;;;;;;;;;;12.20;92.00;;;;;;5027084;28;19913;-76
2021/12/20 11:27:24;;;;;;;;;;;12.30;91.80;;;;;;5027225;28;19913;-74
2021/12/20 11:29:53;;;;;;;9.82;2.20;;;12.30;91.10;;;;;;5040887;28;20923;-75
2021/12/20 11:32:21;;;;;;;8.98;1.90;;;12.30;91.40;;;;;;5062673;28;20477;-75
2021/12/20 11:34:47;;;;;;;8.30;1.88;;;12.30;92.00;;;;;;5047111;28;20960;-74
2021/12/20 11:37:16;;;;;;;13.52;4.72;;;12.20;91.80;;;;;;5046922;28;20423;-74
2021/12/20 11:39:42;;;;;;;10.82;3.05;;;12.10;91.20;;;;;;5065826;28;20495;-74
2021/12/20 11:42:09;;;;;;;10.02;1.60;;;12.00;89.50;;;;;;5051304;28;20419;-74
2021/12/20 11:44:37;;;;;;;7.20;1.45;;;11.90;89.70;;;;;;5068395;28;20775;-74
2021/12/20 11:47:08;;;;;;;5.50;1.20;;;11.80;90.40;;;;;;5048700;28;20421;-72
2021/12/20 11:49:35;;;;;;;5.65;1.27;;;11.70;90.90;;;;;;5072639;28;20490;-73
2021/12/20 11:52:12;;;;;;;6.78;1.55;;;11.60;91.70;;;;;;5070439;28;20419;-74
2021/12/20 11:54:49;;;;;;;9.30;1.45;;;11.50;91.30;;;;;;5071469;28;20413;-73
2021/12/20 11:57:33;;;;;;;10.65;1.60;;;11.40;91.10;;;;;;5063819;28;20419;-73
2021/12/20 12:00:21;;;;;;;6.57;1.30;;;11.30;92.00;;;;;;5068930;28;20417;-73
2021/12/20 12:02:50;;;;;;;10.63;1.50;;;11.20;92.10;;;;;;5064885;28;20411;-73
2021/12/20 12:05:34;;;;;;;5.22;1.33;;;11.20;92.10;;;;;;5066289;28;21292;-73
2021/12/20 12:08:24;;;;;;;7.15;1.58;;;11.10;92.30;;;;;;5068491;28;20403;-73
2021/12/20 12:11:06;;;;;;;7.68;1.60;;;11.00;92.60;;;;;;5066780;28;20424;-73
2021/12/20 12:13:58;;;;;;;13.75;7.05;;;10.90;92.50;;;;;;5066773;28;20456;-73
2021/12/20 12:16:45;;;;;;;9.07;2.30;;;10.90;92.00;;;;;;5064009;28;20415;-73
2021/12/20 12:19:12;;;;;;;7.90;1.95;;;10.80;91.90;;;;;;5071336;28;20899;-73
2021/12/20 12:21:41;;;;;;;8.50;1.70;;;10.80;92.00;;;;;;5066553;28;20419;-73
2021/12/20 12:24:14;;;;;;;8.27;1.55;;;10.80;92.10;;;;;;5066853;28;20411;-73
2021/12/20 12:26:43;;;;;;;11.00;1.70;;;10.70;92.20;;;;;;5067314;28;20418;-73
2021/12/20 12:29:20;;;;;;;12.18;1.95;;;10.70;92.60;;;;;;5066358;28;20428;-73
2021/12/20 12:31:56;;;;;;;6.80;1.40;;;10.70;92.80;;;;;;5070741;28;20418;-73
2021/12/20 12:34:24;;;;;;;7.17;1.60;;;10.60;92.60;;;;;;5068024;28;20464;-73
2021/12/20 12:36:50;;;;;;;9.65;2.08;;;10.60;92.40;;;;;;5065739;28;20481;-73
2021/12/20 12:39:22;;;;;;;11.52;2.38;;;10.60;92.40;;;;;;5068201;28;20403;-73
2021/12/20 12:41:56;;;;;;;7.13;1.40;;;10.60;92.50;;;;;;5065890;28;20427;-73
2021/12/20 12:44:27;;;;;;;7.13;1.30;;;10.60;92.70;;;;;;5062752;28;20423;-73
2021/12/20 12:47:14;;;;;;;9.23;1.83;;;10.60;92.20;;;;;;5059979;28;20411;-74
2021/12/20 12:49:51;;;;;;;7.50;1.60;;;10.60;93.00;;;;;;5046607;28;20769;-73
2021/12/20 12:52:16;;;;;;;9.10;1.93;;;10.50;92.40;;;;;;5058701;28;20494;-74
2021/12/20 12:54:53;;;;;;;9.18;1.50;;;10.50;92.70;;;;;;5061158;28;20549;-73
2021/12/20 12:57:18;;;;;;;8.60;1.65;;;10.50;92.30;;;;;;5058598;28;20814;-73
2021/12/20 12:59:47;;;;;;;9.67;1.60;;;10.50;92.90;;;;;;5072680;28;20417;-73
2021/12/20 13:02:22;;;;;;;8.02;1.40;;;10.50;93.40;;;;;;5055700;28;20498;-74
2021/12/20 13:04:54;;;;;;;9.52;1.40;;;10.50;92.80;;;;;;5064853;28;20508;-73
2021/12/20 13:07:22;;;;;;;5.72;1.20;;;10.50;92.30;;;;;;5062239;28;20424;-73
2021/12/20 13:09:50;;;;;;;8.60;1.50;;;10.50;91.90;;;;;;5063680;28;20414;-73
2021/12/20 13:12:35;;;;;;;5.75;1.38;;;10.50;92.10;;;;;;5057944;28;20535;-74